Time;durP1;ratioP1;P1;durP2;ratioP2;P2;SDS_P1;SDS_P2;PMS_P1;PMS_P2;Temp;Humidity;BMP_temperature;BMP_pressure;BME280_temperature;BME280_humidity;BME280_pressure;Samples;Min_cycle;Max_cycle;Signal;HPM_P1;HPM_P2
2022/09/05 00:02:00;;;;;;;;;;;18.30;56.90;;;14.20;93.47;95993.34;4975452;28;20267;-54
2022/09/05 00:05:17;;;;;;;;;;;18.20;57.00;;;14.18;93.60;95985.56;5043234;28;19912;-50
2022/09/05 00:08:01;;;;;;;;;;;18.20;57.20;;;14.17;93.53;95991.22;5053929;28;20286;-52
2022/09/05 00:10:57;;;;;;;;;;;18.10;57.30;;;14.16;93.43;95986.91;5054172;28;19958;-52
2022/09/05 00:13:53;;;;;;;;;;;18.10;57.40;;;14.14;93.74;95989.09;5052603;28;19942;-49
2022/09/05 00:16:30;;;;;;;;;;;18.10;57.50;;;14.12;93.95;95990.13;5037385;28;19915;-53
2022/09/05 00:19:55;;;;;;;;;;;18.10;57.50;;;14.12;93.76;95995.50;5052724;28;19920;-49
2022/09/05 00:23:12;;;;;;;;;;;18.10;57.60;;;14.09;93.84;95996.03;5038516;28;19970;-48
2022/09/05 00:25:50;;;;;;;;;;;18.10;57.70;;;14.07;93.48;95992.88;5053498;28;19959;-50
2022/09/05 00:28:51;;;;;;;;;;;18.00;57.80;;;14.07;93.61;95992.03;5052880;28;19909;-53
2022/09/05 00:31:46;;;;;;;;;;;18.10;57.90;;;14.05;94.57;95978.94;5026226;28;19957;-54
2022/09/05 00:34:31;;;;;;;;;;;18.10;57.90;;;14.07;94.38;95976.78;5054176;28;19919;-53
2022/09/05 00:36:57;;;;;;;;;;;18.10;58.20;;;14.08;94.06;95974.91;5053187;28;19917;-52
2022/09/05 00:39:39;;;;;;;;;;;18.10;58.00;;;14.06;94.11;95977.84;5053488;28;19917;-53
2022/09/05 00:42:21;;;;;;;;;;;18.00;58.00;;;14.04;94.12;95972.00;5035954;28;20058;-53
2022/09/05 00:44:59;;;;;;;;;;;18.00;58.10;;;14.00;94.10;95970.91;5035421;28;19912;-54
2022/09/05 00:48:16;;;;;;;;;;;18.00;58.10;;;13.97;94.54;95974.16;5018662;28;19909;-52
2022/09/05 00:51:34;;;;;;;;;;;18.00;58.20;;;13.96;93.81;95977.91;4993049;28;20336;-51
2022/09/05 00:54:33;;;;;;;;;;;17.90;58.20;;;13.85;95.11;95971.00;5053025;28;19908;-52
2022/09/05 00:57:34;;;;;;;;;;;17.90;58.30;;;13.84;94.87;95975.56;5052095;28;20389;-53
2022/09/05 01:00:50;;;;;;;;;;;17.90;58.40;;;13.82;94.68;95974.22;5052951;28;19916;-49
2022/09/05 01:03:52;;;;;;;;;;;17.80;58.40;;;13.74;95.24;95972.13;4967165;28;19912;-53
2022/09/05 01:07:13;;;;;;;;;;;17.80;58.50;;;13.69;95.04;95978.28;5052321;28;19908;-50
2022/09/05 01:10:13;;;;;;;;;;;17.70;58.50;;;13.64;95.14;95984.50;4987110;28;20363;-53
2022/09/05 01:13:13;;;;;;;;;;;17.70;58.60;;;13.57;95.67;95983.16;5043698;28;20374;-52
2022/09/05 01:16:35;;;;;;;;;;;17.70;58.60;;;13.53;96.17;95979.44;5050863;28;20001;-54
2022/09/05 01:19:29;;;;;;;;;;;17.60;58.70;;;13.50;97.02;95988.00;5052173;28;20011;-49
2022/09/05 01:23:01;;;;;;;;;;;17.60;58.90;;;13.53;97.14;95987.47;5018299;28;19912;-51
2022/09/05 01:25:58;;;;;;;;;;;17.60;59.00;;;13.52;95.78;95981.31;4932116;29;20049;-52
2022/09/05 01:28:39;;;;;;;;;;;17.50;59.00;;;13.44;96.14;95995.25;4941624;28;19914;-51
2022/09/05 01:32:21;;;;;;;;;;;17.50;59.10;;;13.37;96.20;95984.03;4923726;28;19921;-53
2022/09/05 01:35:14;;;;;;;;;;;17.40;59.00;;;13.28;97.40;95978.44;4942712;28;19917;-52
2022/09/05 01:37:57;;;;;;;;;;;17.40;59.10;;;13.29;97.99;95985.41;4938633;28;20301;-54
2022/09/05 01:40:43;;;;;;;;;;;17.30;59.20;;;13.28;98.35;95983.78;4920492;28;19982;-53
2022/09/05 01:43:56;;;;;;;;;;;17.30;59.30;;;13.24;97.15;95984.59;4932176;29;19914;-53
2022/09/05 01:47:08;;;;;;;;;;;17.30;59.30;;;13.13;98.33;95987.28;4951081;29;19991;-54
2022/09/05 01:50:20;;;;;;;;;;;17.20;59.40;;;13.09;98.99;95980.06;4932160;29;19917;-51
2022/09/05 01:53:45;;;;;;;;;;;17.20;59.50;;;13.10;99.77;95979.81;4929503;29;20527;-52
2022/09/05 01:57:16;;;;;;;;;;;17.20;59.60;;;13.08;98.60;95973.13;4996780;28;20003;-48
2022/09/05 02:00:06;;;;;;;;;;;17.10;59.60;;;12.99;97.88;95974.75;5051936;28;20037;-53
2022/09/05 02:03:20;;;;;;;;;;;17.10;59.70;;;12.95;99.01;95974.47;5033992;28;19912;-54
2022/09/05 02:06:23;;;;;;;;;;;17.00;59.80;;;12.92;98.93;95972.34;5035584;28;19916;-47
2022/09/05 02:09:39;;;;;;;;;;;17.00;60.00;;;12.89;98.44;95973.69;5050688;28;20420;-53
2022/09/05 02:12:51;;;;;;;;;;;17.00;60.00;;;12.84;98.39;95964.84;5033189;28;19948;-50
2022/09/05 02:15:37;;;;;;;;;;;16.90;60.00;;;12.79;98.92;95967.56;5033034;28;19908;-54
2022/09/05 02:18:19;;;;;;;;;;;16.90;60.10;;;12.74;99.72;95963.78;5034559;28;19931;-53
2022/09/05 02:21:07;;;;;;;;;;;16.90;60.30;;;12.74;99.44;95960.31;5051309;28;20332;-49
2022/09/05 02:23:47;;;;;;;;;;;16.80;60.20;;;12.73;100.00;95956.06;5034421;28;20382;-47
2022/09/05 02:26:38;;;;;;;;;;;16.80;60.30;;;12.72;99.69;95965.94;5033390;28;20301;-49
2022/09/05 02:29:12;;;;;;;;;;;16.80;60.30;;;12.70;100.00;95960.06;5051312;28;20638;-50
2022/09/05 02:31:38;;;;;;;;;;;16.80;60.40;;;12.69;100.00;95961.16;5033600;28;19953;-52
2022/09/05 02:34:41;;;;;;;;;;;16.80;60.60;;;12.67;100.00;95965.16;5049545;28;20015;-51
2022/09/05 02:38:05;;;;;;;;;;;16.80;60.60;;;12.66;100.00;95956.34;5048949;28;19912;-49
2022/09/05 02:41:36;;;;;;;;;;;16.80;60.70;;;12.68;100.00;95951.50;5050872;28;19909;-48
2022/09/05 02:44:11;;;;;;;;;;;16.80;60.90;;;12.71;100.00;95948.28;4938533;28;19918;-50
2022/09/05 02:47:18;;;;;;;;;;;16.70;61.00;;;12.72;100.00;95952.59;5016495;28;20378;-49
2022/09/05 02:50:28;;;;;;;;;;;16.80;61.10;;;12.71;100.00;95950.16;5019037;28;19912;-48
2022/09/05 02:52:56;;;;;;;;;;;16.80;61.20;;;12.75;100.00;95948.56;5033993;28;19916;-50
2022/09/05 02:56:03;;;;;;;;;;;16.70;61.20;;;12.78;100.00;95953.34;5013042;28;19954;-48
2022/09/05 02:59:09;;;;;;;;;;;16.80;61.40;;;12.77;100.00;95943.75;4986544;28;19916;-48
2022/09/05 03:02:16;;;;;;;;;;;16.80;61.30;;;12.78;100.00;95941.88;4992795;28;20269;-48
2022/09/05 03:05:01;;;;;;;;;;;16.80;61.30;;;12.78;100.00;95939.19;5016449;28;20403;-48
2022/09/05 03:08:08;;;;;;;;;;;16.80;61.40;;;12.78;100.00;95944.53;4919940;28;23488;-47
2022/09/05 03:11:37;;;;;;;;;;;16.80;61.50;;;12.77;100.00;95940.28;5032454;28;19915;-50
2022/09/05 03:14:42;;;;;;;;;;;16.80;61.50;;;12.80;100.00;95937.06;5048970;28;19912;-48
2022/09/05 03:17:41;;;;;;;;;;;16.80;61.60;;;12.80;100.00;95937.06;5022984;28;19916;-52
2022/09/05 03:20:41;;;;;;;;;;;16.80;61.60;;;12.78;100.00;95944.53;5014686;28;19921;-49
2022/09/05 03:23:59;;;;;;;;;;;16.80;61.70;;;12.72;100.00;95946.41;5013600;28;20395;-50
2022/09/05 03:26:55;;;;;;;;;;;16.80;61.70;;;12.67;100.00;95949.91;5013587;28;19916;-46
2022/09/05 03:30:07;;;;;;;;;;;16.70;61.70;;;12.66;100.00;95947.50;4975959;28;19909;-53
2022/09/05 03:33:00;;;;;;;;;;;16.70;61.70;;;12.64;100.00;95952.31;5033073;28;19915;-48
2022/09/05 03:36:12;;;;;;;;;;;16.70;61.90;;;12.63;100.00;95953.38;5032291;28;20023;-48
2022/09/05 03:39:31;;;;;;;;;;;16.70;62.00;;;12.65;100.00;95948.56;5032790;28;19909;-48
2022/09/05 03:42:15;;;;;;;;;;;16.70;62.10;;;12.67;100.00;95944.56;5032757;28;19917;-49
2022/09/05 03:45:35;;;;;;;;;;;16.70;62.30;;;12.66;100.00;95942.97;5033048;28;19909;-50
2022/09/05 03:48:46;;;;;;;;;;;16.70;62.30;;;12.67;100.00;95941.88;5048083;28;19915;-49
2022/09/05 03:51:40;;;;;;;;;;;16.70;62.40;;;12.70;100.00;95944.03;5017267;28;19908;-51
2022/09/05 03:55:02;;;;;;;;;;;16.70;62.50;;;12.72;100.00;95951.75;5018027;28;19916;-51
2022/09/05 03:58:36;;;;;;;;;;;16.70;62.40;;;12.74;100.00;95946.97;5012104;28;19909;-51
2022/09/05 04:01:23;;;;;;;;;;;16.80;62.50;;;12.75;100.00;95953.91;5021123;28;20004;-50
2022/09/05 04:04:01;;;;;;;;;;;16.80;62.60;;;12.73;100.00;95954.19;5013454;28;20011;-48
2022/09/05 04:07:04;;;;;;;;;;;16.80;62.50;;;12.69;100.00;95955.81;5020395;28;19916;-51
2022/09/05 04:09:58;;;;;;;;;;;16.80;62.50;;;12.67;100.00;95955.25;5014087;28;20295;-51
2022/09/05 04:12:51;;;;;;;;;;;16.80;62.50;;;12.65;100.00;95961.94;5022455;28;19963;-50
2022/09/05 04:15:37;;;;;;;;;;;16.80;62.50;;;12.64;100.00;95963.81;5011856;28;20144;-52
2022/09/05 04:18:26;;;;;;;;;;;16.80;62.60;;;12.65;100.00;95965.41;5024667;28;19931;-52
2022/09/05 04:21:14;;;;;;;;;;;16.80;62.60;;;12.65;100.00;95959.25;5014976;28;19912;-50
2022/09/05 04:24:02;;;;;;;;;;;16.80;62.60;;;12.66;100.00;95972.38;5017465;28;19913;-51
2022/09/05 04:26:55;;;;;;;;;;;16.80;62.70;;;12.72;100.00;95973.97;5051179;28;19917;-52
2022/09/05 04:29:38;;;;;;;;;;;16.80;62.90;;;12.72;100.00;95976.66;5051419;28;19916;-50
2022/09/05 04:32:44;;;;;;;;;;;16.80;62.90;;;12.70;100.00;95978.78;5051593;28;19966;-48
2022/09/05 04:35:38;;;;;;;;;;;16.80;63.00;;;12.70;100.00;95986.00;5051169;28;19909;-52
2022/09/05 04:38:35;;;;;;;;;;;16.80;63.00;;;12.74;100.00;95987.06;5051450;28;19912;-51
2022/09/05 04:41:20;;;;;;;;;;;16.80;63.00;;;12.82;100.00;95991.06;5033761;28;19915;-50
2022/09/05 04:44:13;;;;;;;;;;;16.80;63.10;;;12.90;100.00;95985.16;5050348;28;19912;-46
2022/09/05 04:46:54;;;;;;;;;;;16.90;63.30;;;12.95;100.00;95991.31;5033123;28;19924;-52
2022/09/05 04:49:41;;;;;;;;;;;16.90;63.30;;;12.99;100.00;95994.25;5051204;28;19984;-54
2022/09/05 04:52:53;;;;;;;;;;;17.00;63.40;;;13.00;100.00;95995.03;5018677;28;19909;-50
2022/09/05 04:55:30;;;;;;;;;;;17.00;63.30;;;13.03;100.00;95999.84;5042779;28;19912;-49
2022/09/05 04:58:21;;;;;;;;;;;17.10;63.50;;;13.06;100.00;96005.47;5017208;28;20015;-53
2022/09/05 05:01:02;;;;;;;;;;;17.10;63.40;;;13.07;100.00;96007.09;5013086;28;19913;-54
2022/09/05 05:03:47;;;;;;;;;;;17.20;63.40;;;13.07;100.00;96025.81;5016279;28;20003;-53
2022/09/05 05:06:21;;;;;;;;;;;17.10;63.20;;;13.06;100.00;96016.16;5042426;28;19951;-47
2022/09/05 05:09:05;;;;;;;;;;;17.20;63.30;;;13.05;100.00;96011.91;5030870;28;20286;-52
2022/09/05 05:12:08;;;;;;;;;;;17.20;63.20;;;13.07;100.00;96020.47;4997546;28;19989;-52
2022/09/05 05:15:08;;;;;;;;;;;17.20;63.30;;;13.13;100.00;96029.25;4997467;28;19912;-47
2022/09/05 05:17:51;;;;;;;;;;;17.20;63.30;;;13.19;100.00;96034.34;5043239;23;19917;-49
2022/09/05 05:20:43;;;;;;;;;;;17.30;63.40;;;13.25;100.00;96029.81;5018971;28;20302;-45
2022/09/05 05:23:27;;;;;;;;;;;17.40;63.50;;;13.30;100.00;96029.81;5029099;28;20351;-45
2022/09/05 05:26:03;;;;;;;;;;;17.40;63.50;;;13.35;100.00;96037.84;5050511;28;19912;-46
2022/09/05 05:29:15;;;;;;;;;;;17.50;63.50;;;13.42;100.00;96035.69;5021678;28;20954;-45
2022/09/05 05:32:01;;;;;;;;;;;17.60;63.50;;;13.47;100.00;96044.75;4990082;28;19909;-44
2022/09/05 05:34:49;;;;;;;;;;;17.60;63.40;;;13.50;100.00;96042.34;5008073;28;20019;-44
2022/09/05 05:37:29;;;;;;;;;;;17.70;63.40;;;13.54;100.00;96043.41;5034111;28;20335;-45
2022/09/05 05:40:25;;;;;;;;;;;17.70;63.30;;;13.55;100.00;96045.00;5043482;28;19941;-48
2022/09/05 05:43:37;;;;;;;;;;;17.80;63.20;;;13.61;100.00;96053.81;5039462;28;19985;-47
2022/09/05 05:46:04;;;;;;;;;;;17.80;63.20;;;13.67;100.00;96046.59;5017359;28;19912;-45
2022/09/05 05:48:37;;;;;;;;;;;17.90;63.20;;;13.70;100.00;96054.06;5008353;28;20371;-45
2022/09/05 05:51:44;;;;;;;;;;;17.90;63.10;;;13.74;100.00;96058.59;5027156;28;19913;-46
2022/09/05 05:54:45;;;;;;;;;;;18.00;63.10;;;13.76;100.00;96056.47;5020339;28;19962;-45
2022/09/05 05:57:38;;;;;;;;;;;18.00;63.00;;;13.79;100.00;96063.16;5045831;28;19977;-49
2022/09/05 06:00:59;;;;;;;;;;;18.10;63.00;;;13.91;100.00;96062.81;5029025;28;19912;-47
2022/09/05 06:03:36;;;;;;;;;;;18.20;63.00;;;14.06;100.00;96070.81;5030102;28;19920;-46
2022/09/05 06:06:17;;;;;;;;;;;18.30;63.00;;;14.17;100.00;96076.94;5012516;28;20252;-44
2022/09/05 06:09:07;;;;;;;;;;;18.40;62.90;;;14.19;99.83;96080.91;5012318;28;19935;-49
2022/09/05 06:12:34;;;;;;;;;;;18.60;62.90;;;14.24;98.98;96072.06;5030308;28;19912;-46
2022/09/05 06:15:46;;;;;;;;;;;18.60;62.70;;;14.33;98.76;96084.63;5030318;28;19908;-49
2022/09/05 06:19:02;;;;;;;;;;;18.80;62.60;;;14.39;98.30;96082.72;5009169;28;19932;-47
2022/09/05 06:22:20;;;;;;;;;;;18.90;62.50;;;14.45;97.64;96086.97;5028510;28;20011;-50
2022/09/05 06:25:22;;;;;;;;;;;18.90;62.40;;;14.54;97.30;96079.97;5032952;28;19912;-46
2022/09/05 06:28:36;;;;;;;;;;;19.10;62.30;;;14.94;98.41;96083.44;5032713;28;20371;-46
2022/09/05 06:31:37;;;;;;;;;;;19.40;62.10;;;15.43;95.65;96079.81;5018844;28;19920;-46
2022/09/05 06:35:05;;;;;;;;;;;19.90;62.00;;;15.78;92.50;96083.25;5031772;28;20346;-48
2022/09/05 06:38:00;;;;;;;;;;;20.40;61.70;;;16.09;88.47;96078.34;5024537;28;19909;-44
2022/09/05 06:41:08;;;;;;;;;;;20.90;61.20;;;16.41;87.30;96087.63;5027624;28;19909;-46
2022/09/05 06:44:18;;;;;;;;;;;21.30;60.80;;;16.89;84.34;96090.19;5032380;28;20237;-44
2022/09/05 06:46:57;;;;;;;;;;;21.90;60.30;;;17.21;81.59;96081.38;5032655;28;19913;-44
2022/09/05 06:50:04;;;;;;;;;;;22.40;59.80;;;17.66;80.94;96094.34;5033095;28;19916;-44
2022/09/05 06:53:01;;;;;;;;;;;22.90;59.30;;;18.19;77.58;96086.59;5033621;28;20037;-46
2022/09/05 06:55:55;;;;;;;;;;;23.60;58.90;;;18.53;75.73;96093.47;5032324;28;19954;-45
2022/09/05 06:58:50;;;;;;;;;;;24.10;58.50;;;18.72;74.79;96087.91;5032931;28;19913;-44
2022/09/05 07:01:30;;;;;;;;;;;24.40;58.00;;;19.06;73.65;96086.66;5032309;28;19987;-45
2022/09/05 07:04:18;;;;;;;;;;;24.80;57.60;;;19.52;71.80;96090.91;5027135;28;20019;-47
2022/09/05 07:07:21;;;;;;;;;;;25.30;57.20;;;19.98;70.14;96097.84;4995887;28;20293;-47
2022/09/05 07:10:37;;;;;;;;;;;25.90;56.80;;;20.63;68.09;96097.09;5031972;28;20378;-46
2022/09/05 07:13:45;;;;;;;;;;;26.50;56.20;;;21.29;65.25;96098.88;5033806;28;19913;-45
2022/09/05 07:17:07;;;;;;;;;;;27.30;55.70;;;21.90;62.92;96100.34;5000436;28;19908;-47
2022/09/05 07:20:07;;;;;;;;;;;27.90;55.00;;;22.67;60.81;96099.53;5032529;28;19920;-45
2022/09/05 07:22:56;;;;;;;;;;;28.70;54.40;;;22.90;59.31;96095.34;5014939;28;20458;-46
2022/09/05 07:25:34;;;;;;;;;;;29.00;53.90;;;23.12;58.36;96101.63;5015563;28;20398;-45
2022/09/05 07:28:09;;;;;;;;;;;29.30;53.40;;;22.99;58.19;96101.56;5031261;28;19909;-45
2022/09/05 07:30:45;;;;;;;;;;;29.30;53.00;;;22.89;58.63;96109.28;5031915;28;19920;-46
2022/09/05 07:33:21;;;;;;;;;;;29.20;52.60;;;22.87;58.89;96104.97;5020272;28;19908;-44
2022/09/05 07:35:50;;;;;;;;;;;29.20;52.40;;;23.00;59.50;96108.59;5052724;28;19913;-46
2022/09/05 07:38:30;;;;;;;;;;;29.30;52.00;;;23.06;57.28;96112.72;5035619;28;20426;-46
2022/09/05 07:41:15;;;;;;;;;;;29.30;51.80;;;23.16;56.97;96121.56;5031434;28;19909;-46
2022/09/05 07:43:48;;;;;;;;;;;29.30;51.50;;;23.03;57.13;96110.66;5032423;28;19920;-46
2022/09/05 07:46:37;;;;;;;;;;;29.30;51.30;;;23.06;57.21;96117.31;5031652;28;19944;-45
2022/09/05 07:49:17;;;;;;;;;;;29.20;51.10;;;23.44;56.51;96119.91;5013520;28;20379;-46
2022/09/05 07:52:04;;;;;;;;;;;29.60;50.80;;;23.94;54.77;96115.38;5031497;28;19912;-45
2022/09/05 07:54:52;;;;;;;;;;;30.00;50.30;;;24.39;52.33;96125.44;5032503;28;19916;-46
2022/09/05 07:57:44;;;;;;;;;;;30.60;49.90;;;24.73;52.15;96121.47;5031488;28;19954;-46
2022/09/05 08:00:19;;;;;;;;;;;31.10;49.20;;;24.81;52.43;96123.25;5012229;28;19955;-45
2022/09/05 08:02:46;;;;;;;;;;;31.30;48.80;;;25.23;51.05;96127.63;5022626;28;19912;-47
2022/09/05 08:05:43;;;;;;;;;;;31.60;48.40;;;25.17;51.02;96129.81;5034339;28;19936;-49
2022/09/05 08:09:07;;;;;;;;;;;31.70;48.10;;;25.54;48.70;96130.47;5033961;28;20015;-46
2022/09/05 08:11:38;;;;;;;;;;;31.90;47.80;;;25.22;49.56;96136.94;5034126;28;19920;-48
2022/09/05 08:14:36;;;;;;;;;;;32.00;46.80;;;25.75;49.13;96138.44;5026387;28;20407;-45
2022/09/05 08:17:09;;;;;;;;;;;32.10;46.50;;;25.82;48.31;96138.66;5031895;28;20406;-47
2022/09/05 08:20:24;;;;;;;;;;;32.20;46.40;;;25.99;48.48;96142.22;5030195;28;19925;-46
2022/09/05 08:23:27;;;;;;;;;;;32.40;46.10;;;26.24;48.26;96143.63;5030272;28;19944;-47
2022/09/05 08:26:08;;;;;;;;;;;32.60;45.70;;;26.62;46.66;96144.16;5031739;28;19909;-48
2022/09/05 08:28:54;;;;;;;;;;;32.90;45.50;;;26.60;46.72;96149.19;5030370;28;20465;-46
2022/09/05 08:32:11;;;;;;;;;;;32.90;45.70;;;26.33;47.12;96148.13;5031660;28;20291;-46
2022/09/05 08:34:45;;;;;;;;;;;32.90;45.30;;;26.30;48.51;96149.63;5031582;28;20405;-47
2022/09/05 08:37:19;;;;;;;;;;;32.80;44.90;;;26.05;48.54;96144.31;5025589;28;19944;-45
2022/09/05 08:39:51;;;;;;;;;;;32.70;44.80;;;25.90;48.69;96147.03;5042572;28;20009;-47
2022/09/05 08:42:56;;;;;;;;;;;32.60;44.60;;;25.68;49.54;96140.97;5038031;28;19920;-45
2022/09/05 08:45:33;;;;;;;;;;;32.50;44.50;;;25.58;50.11;96139.53;5017122;28;19916;-47
2022/09/05 08:49:06;;;;;;;;;;;32.30;44.50;;;25.66;49.36;96148.69;5049760;28;20382;-52
2022/09/05 08:51:55;;;;;;;;;;;32.10;44.40;;;25.51;49.23;96136.63;4970447;28;19952;-46
2022/09/05 08:55:15;;;;;;;;;;;32.00;44.50;;;25.58;50.59;96130.56;5051021;28;20374;-49
2022/09/05 08:58:08;;;;;;;;;;;31.80;44.50;;;25.55;50.92;96140.22;5035990;28;19908;-45
2022/09/05 09:01:24;;;;;;;;;;;31.70;44.60;;;25.37;51.07;96141.66;5050961;28;20533;-46
2022/09/05 09:04:53;;;;;;;;;;;31.60;44.70;;;25.14;51.79;96138.69;5014454;28;20018;-47
2022/09/05 09:07:42;;;;;;;;;;;31.40;44.60;;;24.85;52.73;96128.81;4970034;28;20000;-45
2022/09/05 09:10:40;;;;;;;;;;;31.20;44.60;;;24.89;53.44;96129.72;4938182;28;19910;-46
2022/09/05 09:13:53;;;;;;;;;;;31.10;44.70;;;24.87;53.55;96135.50;5032944;28;20438;-51
2022/09/05 09:17:15;;;;;;;;;;;31.00;44.70;;;24.77;54.27;96136.00;5050852;28;19908;-47
2022/09/05 09:20:11;;;;;;;;;;;30.70;44.60;;;24.59;54.18;96124.53;5050234;28;19916;-47
2022/09/05 09:23:26;;;;;;;;;;;30.60;44.80;;;24.62;55.59;96129.28;5050860;28;19912;-45
2022/09/05 09:26:09;;;;;;;;;;;30.50;45.00;;;24.62;55.49;96132.03;4964523;28;20102;-46
2022/09/05 09:28:56;;;;;;;;;;;30.30;45.10;;;24.54;55.44;96129.41;4969579;28;19910;-46
2022/09/05 09:31:48;;;;;;;;;;;30.10;45.00;;;24.49;55.45;96125.00;5000826;28;19962;-45
2022/09/05 09:34:17;;;;;;;;;;;30.00;45.30;;;24.42;56.19;96124.78;4987020;28;19908;-49
2022/09/05 09:37:32;;;;;;;;;;;29.90;45.40;;;24.21;56.59;96117.47;5048051;28;19916;-45
2022/09/05 09:40:37;;;;;;;;;;;29.80;45.40;;;24.09;56.42;96117.47;5030180;28;20070;-48
2022/09/05 09:44:08;;;;;;;;;;;29.70;45.50;;;23.72;57.77;96120.13;5012453;28;20275;-49
2022/09/05 09:46:49;;;;;;;;;;;29.50;45.50;;;23.70;57.77;96127.81;4964159;28;19909;-48
2022/09/05 09:49:46;;;;;;;;;;;29.30;45.50;;;23.76;58.12;96118.31;4981453;28;20480;-45
2022/09/05 09:52:39;;;;;;;;;;;29.10;45.70;;;23.77;58.09;96124.53;5030385;28;19966;-45
2022/09/05 09:55:34;;;;;;;;;;;29.00;45.90;;;23.78;58.09;96124.22;5031605;28;19955;-49
2022/09/05 09:58:26;;;;;;;;;;;28.80;46.10;;;23.74;61.13;96117.84;5022547;28;20412;-50
2022/09/05 10:01:14;;;;;;;;;;;28.60;46.30;;;23.62;58.23;96117.78;5012028;28;20391;-45
2022/09/05 10:04:36;;;;;;;;;;;28.50;46.50;;;23.44;61.18;96114.47;5028504;28;19940;-45
2022/09/05 10:07:55;;;;;;;;;;;28.40;46.60;;;23.33;59.17;96108.63;5028058;28;19958;-47
2022/09/05 10:11:11;;;;;;;;;;;28.30;46.80;;;23.32;60.37;96109.75;5041657;28;20317;-46
2022/09/05 10:14:33;;;;;;;;;;;28.20;46.90;;;23.34;63.32;96101.25;5015875;28;20015;-47
2022/09/05 10:17:53;;;;;;;;;;;28.20;47.00;;;23.24;62.43;96107.13;5032961;28;19973;-49
2022/09/05 10:20:47;;;;;;;;;;;28.10;47.00;;;23.16;61.33;96102.53;5033670;28;20300;-47
2022/09/05 10:23:34;;;;;;;;;;;28.20;47.20;;;23.20;61.10;96089.91;5029604;28;19971;-47
2022/09/05 10:26:50;;;;;;;;;;;28.20;47.00;;;23.09;59.92;96089.50;5029856;28;19944;-48
2022/09/05 10:29:42;;;;;;;;;;;28.30;47.00;;;23.17;61.18;96085.91;5018518;28;19909;-46
2022/09/05 10:32:12;;;;;;;;;;;28.40;46.90;;;23.20;61.17;96087.19;4992935;28;20016;-50
2022/09/05 10:35:27;;;;;;;;;;;28.50;46.80;;;23.01;60.96;96093.09;5028493;28;19954;-48
2022/09/05 10:38:34;;;;;;;;;;;28.60;46.70;;;23.20;60.64;96087.97;5025279;28;19908;-47
2022/09/05 10:41:13;;;;;;;;;;;28.60;46.60;;;23.19;60.94;96083.66;5032532;28;19916;-47
2022/09/05 10:44:09;;;;;;;;;;;28.70;46.50;;;23.45;59.99;96085.34;5034066;28;20509;-47
2022/09/05 10:47:19;;;;;;;;;;;28.90;46.50;;;23.63;59.53;96081.31;5033840;28;19924;-48
2022/09/05 10:49:53;;;;;;;;;;;29.20;46.40;;;23.86;59.92;96081.72;5033550;28;20317;-47
2022/09/05 10:52:58;;;;;;;;;;;29.50;46.20;;;24.13;58.90;96085.72;5015731;28;19923;-50
2022/09/05 10:55:54;;;;;;;;;;;29.80;46.00;;;24.41;56.61;96079.59;5015595;28;20359;-46
2022/09/05 10:58:32;;;;;;;;;;;30.30;45.80;;;24.49;56.59;96084.16;4984970;28;20366;-49
2022/09/05 11:02:05;;;;;;;;;;;30.60;45.30;;;24.82;54.09;96066.84;5033704;28;20329;-50
2022/09/05 11:04:51;;;;;;;;;;;30.90;45.10;;;25.39;53.01;96061.13;4974854;28;19960;-46
2022/09/05 11:07:46;;;;;;;;;;;31.40;44.70;;;25.80;50.43;96058.28;4975431;28;19916;-51
2022/09/05 11:11:07;;;;;;;;;;;32.30;44.10;;;26.58;49.81;96047.69;4991709;28;19945;-50
2022/09/05 11:13:48;;;;;;;;;;;33.10;43.50;;;26.86;48.84;96045.56;4991575;28;19910;-48
2022/09/05 11:16:44;;;;;;;;;;;34.10;42.90;;;27.56;46.30;96041.09;4966267;28;19916;-50
2022/09/05 11:19:40;;;;;;;;;;;34.80;42.60;;;28.06;45.30;96039.25;5003366;23;19928;-46
2022/09/05 11:22:16;;;;;;;;;;;35.30;42.10;;;27.96;46.00;96034.41;4975261;28;19963;-48
2022/09/05 11:25:04;;;;;;;;;;;35.50;41.80;;;28.02;45.32;96033.72;4987457;28;19916;-46
2022/09/05 11:27:42;;;;;;;;;;;35.70;41.30;;;28.18;45.73;96032.78;5004613;28;19909;-44
2022/09/05 11:30:19;;;;;;;;;;;35.80;41.70;;;28.62;44.94;96030.34;4977560;28;19913;-48
2022/09/05 11:33:46;;;;;;;;;;;36.10;40.80;;;28.76;44.19;96030.50;4948446;28;20287;-45
2022/09/05 11:36:50;;;;;;;;;;;36.30;40.70;;;28.79;45.03;96032.50;4968460;28;19996;-45
2022/09/05 11:40:13;;;;;;;;;;;36.40;40.20;;;29.34;43.47;96029.28;4878199;29;19914;-48
2022/09/05 11:42:44;;;;;;;;;;;37.00;39.80;;;29.70;41.93;96030.47;4973362;28;20316;-44
2022/09/05 11:45:33;;;;;;;;;;;37.40;39.50;;;29.91;41.43;96020.84;4966481;28;19910;-47
2022/09/05 11:48:25;;;;;;;;;;;37.70;39.20;;;30.18;41.11;96021.47;4973664;28;19909;-48
2022/09/05 11:51:52;;;;;;;;;;;37.90;38.80;;;31.01;40.47;96023.56;4990765;28;20084;-48
2022/09/05 11:54:39;;;;;;;;;;;38.50;38.60;;;31.24;38.78;96012.22;4990116;28;19955;-45
2022/09/05 11:58:02;;;;;;;;;;;39.20;38.20;;;31.32;38.38;96018.56;4958755;28;19964;-48
2022/09/05 12:00:46;;;;;;;;;;;39.50;37.80;;;31.34;39.51;96010.75;4972322;28;20295;-46
2022/09/05 12:04:15;;;;;;;;;;;40.00;37.30;;;31.49;38.95;95998.56;4964947;28;19929;-48
2022/09/05 12:07:14;;;;;;;;;;;40.40;36.80;;;32.20;36.73;95994.31;4961302;28;19956;-46
2022/09/05 12:10:01;;;;;;;;;;;40.90;36.40;;;32.17;36.85;95998.63;4975810;28;20304;-52
2022/09/05 12:12:48;;;;;;;;;;;41.00;36.20;;;32.54;35.53;95988.38;4978738;28;20009;-45
2022/09/05 12:15:26;;;;;;;;;;;40.90;35.90;;;32.41;36.31;95991.53;4983132;28;19924;-47
2022/09/05 12:18:28;;;;;;;;;;;40.90;35.60;;;32.52;37.21;95987.97;4970319;28;20303;-49
2022/09/05 12:21:23;;;;;;;;;;;40.80;35.50;;;32.53;35.79;95987.59;4983663;28;20028;-45
2022/09/05 12:24:03;;;;;;;;;;;40.90;35.40;;;31.85;36.70;95984.84;4978619;28;19962;-54
2022/09/05 12:26:35;;;;;;;;;;;40.90;35.10;;;32.03;37.74;95973.88;4979739;28;19918;-45
2022/09/05 12:29:26;;;;;;;;;;;40.90;34.80;;;32.62;37.85;95976.13;4978146;28;19910;-45
2022/09/05 12:31:59;;;;;;;;;;;41.00;34.90;;;32.87;35.34;95973.28;4985315;28;19916;-45
2022/09/05 12:34:58;;;;;;;;;;;41.10;34.80;;;32.67;37.29;95972.97;4991183;28;19932;-45
2022/09/05 12:38:01;;;;;;;;;;;41.20;34.70;;;32.93;35.96;95969.69;4976740;28;20269;-46
2022/09/05 12:40:36;;;;;;;;;;;41.30;34.60;;;32.89;36.44;95962.66;4974524;28;19913;-45
2022/09/05 12:43:12;;;;;;;;;;;41.40;34.40;;;33.35;36.21;95962.44;4992417;28;19914;-50
2022/09/05 12:46:00;;;;;;;;;;;41.50;34.30;;;33.66;33.68;95961.84;4992074;28;20272;-51
2022/09/05 12:49:06;;;;;;;;;;;41.60;34.20;;;33.60;33.29;95956.00;4974944;28;20319;-47
2022/09/05 12:52:02;;;;;;;;;;;41.70;34.00;;;33.59;32.98;95960.72;4992247;28;19964;-48
2022/09/05 12:54:54;;;;;;;;;;;41.80;33.70;;;33.42;32.78;95947.78;4960521;28;19910;-46
2022/09/05 12:57:33;;;;;;;;;;;41.90;33.60;;;33.36;33.41;95946.66;4971873;28;19909;-48
2022/09/05 13:00:11;;;;;;;;;;;41.90;33.40;;;33.52;33.34;95943.41;4974560;28;19952;-49
2022/09/05 13:02:49;;;;;;;;;;;41.90;33.40;;;33.52;34.68;95933.16;4975121;28;19917;-51
2022/09/05 13:05:44;;;;;;;;;;;42.10;33.00;;;33.79;33.45;95938.88;4959227;28;19909;-54
2022/09/05 13:08:19;;;;;;;;;;;42.20;32.80;;;34.18;33.83;95934.19;4973732;28;26630;-47
2022/09/05 13:10:59;;;;;;;;;;;42.40;32.80;;;33.53;33.99;95934.75;4960230;28;20008;-49
2022/09/05 13:13:46;;;;;;;;;;;42.60;32.70;;;33.65;33.07;95936.22;4957780;28;19917;-47
2022/09/05 13:16:21;;;;;;;;;;;42.60;32.40;;;33.61;33.26;95932.69;4991764;28;19909;-47
2022/09/05 13:19:06;;;;;;;;;;;42.60;32.30;;;33.61;33.77;95927.19;4974657;28;20260;-45
2022/09/05 13:21:56;;;;;;;;;;;42.50;32.20;;;33.70;33.74;95924.75;4975592;28;19919;-48
2022/09/05 13:24:37;;;;;;;;;;;42.40;32.10;;;33.93;34.48;95926.13;4971987;28;20062;-50
2022/09/05 13:27:20;;;;;;;;;;;42.50;32.00;;;34.22;32.38;95921.94;4972173;28;19917;-51